Airfield :
LOGIN :

Register | Disclaimer

   EN    FR    IT 

 










Legend :    VFR   Marginal VFR   IFR   Intensive IFR   Very Intensive IFR
Visi :
Ceiling :
>= 8 km
>= 3000ft
5 to 8 km
1000 to 3000 ft
1500m to 5 km
500 to 1000 ft
800 to 1500m
200 to 500 ft
< 800m
< 200 ft
Symbols :   Thunderstorms  Fog  Heavy snow  Heavy precipitations  Wind > 20 kt
SIGMETs :     Misc.  Thunderstorms  Icing  Turbulence  Mountain Waves  Volcanic Ashes






- Airport Elevation : 1411 ft
- IATA code : ZHI


LSZG - Grenchen

CURRENT METAR :
  • 210920Z 22007KT CAVOK 23/17 Q1011

EXPIRED METARs :
  • 210850Z 23003KT 190V260 CAVOK 21/17 Q1011
  • 210820Z VRB03KT CAVOK 20/18 Q1012
  • 210750Z VRB02KT 9999 -RA FEW034 SCT060 BKN075 20/18 Q1011
  • 210720Z VRB01KT 7000 FEW075 20/18 Q1012
  • 210650Z 18002KT 9999 NSC 19/18 Q1012
  • 210620Z 28003KT 9999 FEW012 19/18 Q1012
  • 210550Z 26007KT 9999 FEW010 18/18 Q1012
  • 210520Z AUTO 19005KT 150V220 9000 NCD 18/18 Q1011
  • 210450Z AUTO VRB01KT 5000 -RA FEW070 18/18 Q1011

TAF TAF LSZG
Valid from the 21 at 09:00 until the 21 at 18:00 UTC


210825Z 2109/2118 18002KT 9999 FEW060 BKN090
TEMPO 2110/2118 SHRA SCT050TCU
PROB30
TEMPO 2112/2118 TSRA FEW050CB
ATIS : +41 32 396 96 33



MET'MAP, your aeronautical weather chart ! - Copyright ORBIFLY December 2007 - Disclaimer

ORBIFLY MET'MAP TEAM :

Programming & Development : Alexandra Zaïnal
Original concept : Baudouin d'Aumeries
Technical & hardware support : Manuel Goepfert
Assistance : Marc-Olivier Méhu




SOURCES & CREDITS :

   NOAA